Thunder radar more information blitzortung!


Radar de pluja more information rain snow radar


Visita la nostra xarxa de llocs de meteo:

Template documentation
and downloads

And another site



No particular awareness of the weather is required.    There are no Weather-warnings

Pagina Historial Weather Underground text

Diari Resum Novembre 4, 2017 Unitats:  Mètric    Imperial   Tant
« Previous Dia
SegĂźent Dia »
Diari Setmana Mensual Anual Personalitzada
  Maxima: Minima: Media:
Temperatura: -17.8 °C -10.6 °C -9.1 °C
Punt de rosada: -17.8 °C -11.7 °C -10.9 °C
Humitat: Humidity % 63 % 82 %
Wind Speed: 0 km/h 0 km/h 4.5 km/h
RĂ fegues de vent: 0 km/h - -
Vent:- - SSE
Pression baro: 0 hPa 34198.6 hPa -
Precipitacions: 431.8 mm    
Historical Graphs
 
 
Dades de taula per Novembre 4, 2017
Temps Temperatura Punt de rosada Pression baro Vent Wind Speed RĂ fegues de vent Humitat Rainfall Rate (Hourly)
-17.8 °C -17.8 °C 0 hPa Calm     Humidity % 0 mm
00:00 -10.1 °C -11.2 °C 34361.1 hPa NNE 6 km/h 6 km/h 87 % 0 mm
00:05 -10.1 °C -11.2 °C 34361.1 hPa Calm     87 % 0 mm
00:10 -10.1 °C -11.2 °C 34361.1 hPa NNE 3.1 km/h 3.1 km/h 87 % 0 mm
00:15 -10.1 °C -11.3 °C 34361.1 hPa Calm     87 % 0 mm
00:20 -10.2 °C -11.4 °C 34361.1 hPa WSW 3.1 km/h 3.1 km/h 87 % 0 mm
00:25 -10.3 °C -11.6 °C 34361.1 hPa WSW 3.1 km/h   86 % 0 mm
00:30 -10.3 °C -11.5 °C 34361.1 hPa Calm     87 % 0 mm
00:35 -10.3 °C -11.5 °C 34361.1 hPa NNE 6 km/h 6 km/h 87 % 0 mm
00:40 -10.3 °C -11.5 °C 34327.3 hPa NNE 3.1 km/h   87 % 0 mm
00:45 -10.3 °C -11.4 °C 34327.3 hPa Calm     88 % 0 mm
00:50 -10.3 °C -11.4 °C 34327.3 hPa Calm     88 % 0 mm
00:55 -10.3 °C -11.4 °C 34361.1 hPa Calm     88 % 0 mm
01:00 -10.3 °C -11.4 °C 34361.1 hPa Calm     88 % 0 mm
01:05 -10.4 °C -11.5 °C 34361.1 hPa Calm     88 % 0 mm
01:10 -10.4 °C -11.5 °C 34327.3 hPa NNE 2.3 km/h   88 % 0 mm
01:15 -10.4 °C -11.5 °C 34327.3 hPa Calm     88 % 0 mm
01:20 -10.4 °C -11.5 °C 34327.3 hPa WNW 3.1 km/h 3.1 km/h 88 % 0 mm
01:25 -10.4 °C -11.5 °C 34361.1 hPa Calm     88 % 0 mm
01:30 -10.4 °C -11.5 °C 34361.1 hPa West 3.1 km/h 3.1 km/h 88 % 0 mm
01:35 -10.4 °C -11.5 °C 34361.1 hPa West 3.7 km/h 3.7 km/h 88 % 0 mm
01:40 -10.4 °C -11.4 °C 34361.1 hPa Calm     89 % 0 mm
01:45 -10.4 °C -11.4 °C 34361.1 hPa Calm     89 % 0 mm
01:50 -10.4 °C -11.4 °C 34361.1 hPa Calm     89 % 0 mm
01:55 -10.4 °C -11.4 °C 34327.3 hPa Calm     89 % 0 mm
02:00 -10.4 °C -11.4 °C 34327.3 hPa Calm     89 % 0 mm
02:05 -10.4 °C -11.4 °C 34327.3 hPa Calm     89 % 0 mm
02:10 -10.4 °C -11.4 °C 34327.3 hPa North 3.1 km/h   89 % 0 mm
02:15 -10.4 °C -11.4 °C 34327.3 hPa Calm     89 % 0 mm
02:20 -10.4 °C -11.3 °C 34327.3 hPa Calm     90 % 0 mm
02:21 -10.4 °C -11.3 °C 34327.3 hPa Calm     90 % 0 mm
02:26 -10.4 °C -11.3 °C 34327.3 hPa Calm     90 % 0 mm
02:31 -10.4 °C -11.4 °C 34327.3 hPa Calm     89 % 0 mm
02:36 -10.4 °C -11.4 °C 34327.3 hPa Calm     89 % 0 mm
02:41 -10.4 °C -11.3 °C 34327.3 hPa Calm     90 % 0 mm
02:46 -10.4 °C -11.3 °C 34327.3 hPa Calm     90 % 0 mm
02:51 -10.4 °C -11.4 °C 34327.3 hPa Calm     89 % 0 mm
02:56 -10.4 °C -11.3 °C 34327.3 hPa Calm     90 % 0 mm
03:01 -10.4 °C -11.3 °C 34327.3 hPa Calm     90 % 0 mm
03:06 -10.4 °C -11.3 °C 34327.3 hPa Calm     90 % 0 mm
03:11 -10.4 °C -11.3 °C 34327.3 hPa Calm     90 % 0 mm
03:16 -10.5 °C -11.4 °C 34327.3 hPa Calm     90 % 0 mm
03:21 -10.4 °C -11.3 °C 34327.3 hPa Calm     90 % 0 mm
03:26 -10.5 °C -11.4 °C 34327.3 hPa Calm     90 % 0 mm
03:31 -10.5 °C -11.4 °C 34327.3 hPa Calm     90 % 0 mm
03:36 -10.5 °C -11.4 °C 34327.3 hPa Calm     90 % 0 mm
03:41 -10.5 °C -11.4 °C 34327.3 hPa Calm     90 % 0 mm
03:46 -10.6 °C -11.4 °C 34327.3 hPa SW 6 km/h 6 km/h 90 % 0 mm
03:51 -10.6 °C -11.6 °C 34327.3 hPa SW 3.7 km/h 3.7 km/h 89 % 0 mm
03:56 -10.6 °C -11.5 °C 34327.3 hPa Calm     90 % 0 mm
04:01 -10.6 °C -11.5 °C 34327.3 hPa Calm     90 % 0 mm
04:06 -10.6 °C -11.4 °C 34327.3 hPa Calm     90 % 0 mm
04:11 -10.6 °C -11.4 °C 34327.3 hPa North 3.1 km/h   90 % 0 mm
04:19 -10.5 °C -11.4 °C 34327.3 hPa NNW 3.1 km/h   90 % 0 mm
04:21 -10.5 °C -11.4 °C 34327.3 hPa North 3.1 km/h 3.1 km/h 90 % 0 mm
04:23 -10.5 °C -11.4 °C 34327.3 hPa WNW 6 km/h 6 km/h 90 % 0 mm
04:26 -10.5 °C -11.4 °C 34327.3 hPa NNW 8 km/h 8 km/h 90 % 0 mm
04:27 -10.4 °C -11.3 °C 34327.3 hPa ENE 9 km/h 9 km/h 90 % 0 mm
04:30 -10.4 °C -11.3 °C 34327.3 hPa North 9 km/h 9 km/h 90 % 0 mm
04:35 -10.4 °C -11.3 °C 34327.3 hPa NNE 2.6 km/h 10.3 km/h 90 % 0 mm
04:40 -10.3 °C -11.2 °C 34327.3 hPa NNE 7.7 km/h 15.6 km/h 90 % 0 mm
04:45 -10.3 °C -11.2 °C 34327.3 hPa NNE 9 km/h 9 km/h 90 % 0 mm
04:50 -10.3 °C -11.3 °C 34327.3 hPa NNE 15 km/h 15 km/h 89 % 0 mm
04:55 -10.3 °C -11.3 °C 34327.3 hPa NNE 7.7 km/h 18.2 km/h 89 % 0 mm
05:00 -10.3 °C -11.3 °C 34327.3 hPa NE 7.7 km/h 15.6 km/h 89 % 0 mm
05:05 -10.3 °C -11.3 °C 34327.3 hPa NNE 11.9 km/h 11.9 km/h 89 % 0 mm
05:10 -10.3 °C -11.3 °C 34327.3 hPa North 15 km/h 15 km/h 89 % 0 mm
05:15 -10.4 °C -11.4 °C 34327.3 hPa NNE 5.1 km/h 12.9 km/h 89 % 0 mm
05:20 -10.4 °C -11.4 °C 34327.3 hPa NNE 5.1 km/h 12.9 km/h 89 % 0 mm
05:25 -10.4 °C -11.4 °C 34293.4 hPa North 9 km/h 9 km/h 89 % 0 mm
05:30 -10.4 °C -11.4 °C 34293.4 hPa North 6 km/h   89 % 0 mm
05:35 -10.3 °C -11.3 °C 34293.4 hPa North 2.6 km/h 7.7 km/h 89 % 0 mm
05:40 -10.3 °C -11.3 °C 34327.3 hPa North 2.6 km/h 5.1 km/h 89 % 0 mm
05:45 -10.3 °C -11.3 °C 34327.3 hPa Calm   5.1 km/h 89 % 0 mm
05:50 -10.3 °C -11.3 °C 34327.3 hPa Calm     89 % 0 mm
05:55 -10.3 °C -11.3 °C 34327.3 hPa Calm     89 % 0 mm
06:00 -10.3 °C -11.3 °C 34327.3 hPa Calm     89 % 0 mm
06:05 -10.3 °C -11.3 °C 34327.3 hPa Calm     89 % 0 mm
06:10 -10.2 °C -11.2 °C 34327.3 hPa NW 5.1 km/h 5.1 km/h 89 % 0 mm
06:15 -10.2 °C -11.2 °C 34327.3 hPa Calm     89 % 0 mm
06:20 -10.2 °C -11.2 °C 34327.3 hPa North 4.2 km/h   89 % 0 mm
06:25 -10.2 °C -11.2 °C 34327.3 hPa Calm   5.1 km/h 89 % 0 mm
06:30 -10.2 °C -11.2 °C 34327.3 hPa NE 6 km/h 6 km/h 89 % 0 mm
06:35 -10.2 °C -11.2 °C 34327.3 hPa NE 5.1 km/h 7.7 km/h 89 % 0 mm
06:40 -10.2 °C -11.2 °C 34327.3 hPa Calm   7.7 km/h 89 % 0 mm
06:45 -10.2 °C -11.3 °C 34327.3 hPa NE 3.1 km/h   88 % 0 mm
06:50 -10.2 °C -11.3 °C 34327.3 hPa ENE 6 km/h   88 % 0 mm
06:55 -10.2 °C -11.2 °C 34327.3 hPa WSW 2.6 km/h 5.1 km/h 89 % 0 mm
07:00 -10.2 °C -11.2 °C 34327.3 hPa Calm     89 % 0 mm
07:05 -10.2 °C -11.2 °C 34327.3 hPa SW 6 km/h 6 km/h 89 % 0 mm
07:10 -10.2 °C -11.2 °C 34327.3 hPa SW 3.1 km/h 3.1 km/h 89 % 0 mm
07:15 -10.2 °C -11.2 °C 34327.3 hPa Calm   5.1 km/h 89 % 0 mm
07:20 -10.2 °C -11.2 °C 34327.3 hPa Calm   2.6 km/h 89 % 0 mm
07:25 -10.2 °C -11.2 °C 34327.3 hPa NE 2.3 km/h 3.7 km/h 89 % 0 mm
07:30 -10.2 °C -11.2 °C 34327.3 hPa WSW 6 km/h 6 km/h 89 % 0 mm
07:35 -10.2 °C -11.2 °C 34327.3 hPa ENE 3.1 km/h 3.1 km/h 89 % 0 mm
07:40 -10.2 °C -11.2 °C 34327.3 hPa Calm     89 % 0 mm
07:45 -10.2 °C -11.2 °C 34327.3 hPa Calm     89 % 0 mm
07:50 -10.1 °C -11.1 °C 34327.3 hPa NNE 3.1 km/h 3.1 km/h 89 % 0 mm
07:55 -10.1 °C -11.1 °C 34327.3 hPa Calm     89 % 0 mm
08:00 -10.1 °C -11.1 °C 34327.3 hPa Calm   5.1 km/h 89 % 0 mm
08:05 -10.1 °C -11.1 °C 34327.3 hPa NE 2.6 km/h 5.1 km/h 89 % 0 mm
08:10 -10.2 °C -11.2 °C 34327.3 hPa ENE 6 km/h 6 km/h 89 % 0 mm
08:15 -10.2 °C -11.2 °C 34327.3 hPa Calm     89 % 0 mm
08:20 -10.2 °C -11.2 °C 34327.3 hPa SW 6 km/h   89 % 0 mm
08:25 -10.2 °C -11.2 °C 34293.4 hPa SW 5.1 km/h 5.1 km/h 89 % 0 mm
08:30 -10.2 °C -11.2 °C 34293.4 hPa Calm   2.6 km/h 89 % 0 mm
08:35 -10.2 °C -11.2 °C 34293.4 hPa SW 6 km/h 6 km/h 89 % 0 mm
08:40 -10.2 °C -11.1 °C 34327.3 hPa SW 4.2 km/h 4.2 km/h 90 % 0 mm
08:45 -10.2 °C -11.2 °C 34327.3 hPa SW 2.6 km/h 5.1 km/h 89 % 0 mm
08:50 -10.2 °C -11.2 °C 34327.3 hPa WSW 2.6 km/h 5.1 km/h 89 % 0 mm
08:55 -10.2 °C -11.1 °C 34327.3 hPa WSW 3.1 km/h   90 % 0 mm
09:00 -10.2 °C -11.1 °C 34327.3 hPa WSW 5.6 km/h 5.6 km/h 90 % 0 mm
09:05 -10.2 °C -11.1 °C 34327.3 hPa WSW 3.1 km/h 3.1 km/h 90 % 0 mm
09:10 -10.1 °C -11 °C 34327.3 hPa Calm     90 % 0 mm
09:15 -10 °C -10.9 °C 34327.3 hPa WNW 3.1 km/h 3.1 km/h 90 % 0 mm
09:20 -9.9 °C -10.7 °C 34327.3 hPa Calm     91 % 0 mm
09:25 -9.9 °C -10.7 °C 34293.4 hPa Calm   5.1 km/h 91 % 0 mm
09:30 -9.8 °C -10.6 °C 34293.4 hPa NNE 8 km/h 8 km/h 91 % 0 mm
09:35 -9.7 °C -10.6 °C 34293.4 hPa NNE 12.7 km/h 12.7 km/h 90 % 0 mm
09:40 -9.4 °C -10.3 °C 34327.3 hPa NNE 6 km/h 6 km/h 90 % 0 mm
09:45 -9.2 °C -10.2 °C 34327.3 hPa NE 11.9 km/h 11.9 km/h 89 % 0 mm
09:50 -9.3 °C -10.4 °C 34327.3 hPa NE 5.1 km/h 12.9 km/h 88 % 0 mm
09:55 -9.3 °C -10.4 °C 34327.3 hPa North 5.1 km/h 10.3 km/h 87 % 0 mm
10:00 -9.3 °C -10.6 °C 34327.3 hPa NE 15 km/h 15 km/h 86 % 0 mm
10:05 -9.2 °C -10.6 °C 34327.3 hPa NNE 11.9 km/h 11.9 km/h 85 % 0 mm
10:10 -9.2 °C -10.6 °C 34327.3 hPa NNE 2.6 km/h 15.6 km/h 85 % 0 mm
10:15 -9.1 °C -10.6 °C 34327.3 hPa NNE 7.7 km/h 15.6 km/h 84 % 0 mm
10:20 -8.7 °C -10.2 °C 34327.3 hPa NW 6.3 km/h 6.3 km/h 84 % 0 mm
10:25 -8.6 °C -10.2 °C 34327.3 hPa NNE 5.1 km/h 18.2 km/h 83 % 0 mm
10:30 -8.5 °C -10.2 °C 34327.3 hPa NNE 7.7 km/h 18.2 km/h 82 % 0 mm
10:35 -8.4 °C -10.2 °C 34327.3 hPa NNE 5.1 km/h 20.8 km/h 81 % 0 mm
10:40 -8.2 °C -10.1 °C 34327.3 hPa NNE 9 km/h 9 km/h 80 % 0 mm
10:45 -8.1 °C -10.2 °C 34327.3 hPa ENE 6 km/h 6 km/h 79 % 0 mm
10:50 -8.1 °C -10.2 °C 34327.3 hPa NE 9 km/h 9 km/h 79 % 0 mm
10:55 -8.3 °C -10.4 °C 34327.3 hPa NE 7.7 km/h 12.9 km/h 78 % 0 mm
11:00 -8.2 °C -10.3 °C 34327.3 hPa NNE 6 km/h 6.3 km/h 78 % 0 mm
11:05 -8.1 °C -10.3 °C 34327.3 hPa NE 5.1 km/h 7.7 km/h 78 % 0 mm
11:10 -8 °C -10.2 °C 34361.1 hPa NNE 5.1 km/h 12.9 km/h 78 % 0 mm
11:15 -7.9 °C -10.2 °C 34361.1 hPa NE 5.1 km/h 12.9 km/h 77 % 0 mm
11:20 -7.8 °C -10.1 °C 34361.1 hPa NNE 2.6 km/h 10.3 km/h 77 % 0 mm
11:25 -7.6 °C -9.8 °C 34327.3 hPa NNW 2.6 km/h 7.7 km/h 78 % 0 mm
11:30 -7.4 °C -9.7 °C 34327.3 hPa North 6 km/h 6 km/h 77 % 0 mm
11:35 -7.4 °C -9.8 °C 34327.3 hPa NE 5.1 km/h 7.7 km/h 76 % 0 mm
11:40 -7.5 °C -9.9 °C 34327.3 hPa Calm   7.7 km/h 76 % 0 mm
11:45 -7.4 °C -9.8 °C 34327.3 hPa SW 3.1 km/h   76 % 0 mm
11:50 -7.3 °C -9.7 °C 34327.3 hPa NW 2.6 km/h 7.7 km/h 76 % 0 mm
11:55 -7.2 °C -9.7 °C 34327.3 hPa NNW 2.6 km/h 5.1 km/h 75 % 0 mm
12:00 -7.2 °C -9.7 °C 34327.3 hPa NE 3.7 km/h 3.7 km/h 75 % 0 mm
12:05 -7.3 °C -9.8 °C 34327.3 hPa NNE 6 km/h 6 km/h 75 % 0 mm
12:10 -7.2 °C -9.8 °C 34327.3 hPa ENE 6 km/h 6 km/h 74 % 0 mm
12:15 -7.2 °C -9.8 °C 34327.3 hPa NE 5.1 km/h 10.3 km/h 74 % 0 mm
12:20 -7.2 °C -9.8 °C 34327.3 hPa ENE 5.1 km/h 10.3 km/h 74 % 0 mm
12:25 -7.1 °C -9.9 °C 34293.4 hPa East 9 km/h 9.8 km/h 72 % 0 mm
12:30 -6.9 °C -9.8 °C 34293.4 hPa ESE 6 km/h 6 km/h 72 % 0 mm
12:35 -6.8 °C -9.7 °C 34293.4 hPa East 9 km/h 9 km/h 72 % 0 mm
12:40 -6.7 °C -9.6 °C 34256.2 hPa ENE 5.1 km/h 7.7 km/h 72 % 0 mm
12:45 -6.5 °C -9.6 °C 34256.2 hPa East 2.6 km/h 10.3 km/h 71 % 0 mm
12:50 -6.5 °C -9.6 °C 34256.2 hPa ESE 6 km/h 6 km/h 70 % 0 mm
12:55 -6.4 °C -9.7 °C 34222.3 hPa ESE 12.7 km/h 12.7 km/h 69 % 0 mm
13:00 -6.6 °C -9.7 °C 34222.3 hPa SE 2.6 km/h 12.9 km/h 70 % 0 mm
13:05 -6.4 °C -9.7 °C 34222.3 hPa SSE 5.1 km/h 10.3 km/h 69 % 0 mm
13:10 -6.3 °C -9.6 °C 34256.2 hPa NE 9 km/h 9 km/h 69 % 0 mm
13:15 -6.4 °C -9.7 °C 34256.2 hPa NNW 9 km/h 9 km/h 69 % 0 mm
13:20 -6.3 °C -9.6 °C 34256.2 hPa SE 7.6 km/h 7.6 km/h 69 % 0 mm
13:25 -6 °C -9.6 °C 34256.2 hPa SE 2.6 km/h 7.7 km/h 67 % 0 mm
13:30 -5.8 °C -9.3 °C 34256.2 hPa SW 5.1 km/h 12.9 km/h 68 % 0 mm
13:35 -5.8 °C -9.4 °C 34256.2 hPa SW 9 km/h 9 km/h 67 % 0 mm
13:40 -5.8 °C -9.4 °C 34222.3 hPa SSE 9 km/h 9 km/h 66 % 0 mm
13:45 -5.8 °C -9.6 °C 34222.3 hPa South 5.1 km/h 7.7 km/h 65 % 0 mm
13:50 -5.8 °C -9.5 °C 34222.3 hPa SW 2.6 km/h 7.7 km/h 66 % 0 mm
13:55 -5.8 °C -9.3 °C 34222.3 hPa WSW 7.7 km/h 15.6 km/h 67 % 0 mm
14:00 -5.7 °C -9.4 °C 34222.3 hPa WNW 9 km/h 9 km/h 66 % 0 mm
14:05 -5.4 °C -9.3 °C 34222.3 hPa SW 5.1 km/h 12.9 km/h 65 % 0 mm
14:10 -5.4 °C -9.4 °C 34222.3 hPa WSW 2.6 km/h 7.7 km/h 64 % 0 mm
14:15 -5.5 °C -9.5 °C 34222.3 hPa WSW 8.5 km/h 8.5 km/h 64 % 0 mm
14:20 -5.6 °C -9.6 °C 34222.3 hPa SW 9 km/h   64 % 0 mm
14:25 -5.6 °C -9.7 °C 34222.3 hPa SW 2.6 km/h 5.1 km/h 63 % 0 mm
14:30 -5.7 °C -9.5 °C 34222.3 hPa SW 9 km/h 9 km/h 65 % 0 mm
14:35 -5.7 °C -9.7 °C 34222.3 hPa SW 2.6 km/h 7.7 km/h 64 % 0 mm
14:40 -5.8 °C -9.8 °C 34222.3 hPa SW 2.6 km/h 7.7 km/h 64 % 0 mm
14:45 -5.8 °C -9.6 °C 34222.3 hPa SW 9 km/h 9 km/h 65 % 0 mm
14:50 -5.8 °C -9.6 °C 34222.3 hPa SW 5.1 km/h 12.9 km/h 65 % 0 mm
14:55 -5.8 °C -9.6 °C 34222.3 hPa SW 5.1 km/h 10.3 km/h 65 % 0 mm
15:00 -6 °C -10.1 °C 34222.3 hPa ENE 6 km/h   63 % 0 mm
15:05 -5.9 °C -9.8 °C 34222.3 hPa SSW 5.6 km/h 5.6 km/h 64 % 0 mm
15:10 -5.9 °C -9.8 °C 34198.6 hPa WSW 7.7 km/h 12.9 km/h 65 % 0 mm
15:15 -5.9 °C -9.9 °C 34198.6 hPa SW 2.6 km/h 12.9 km/h 64 % 0 mm
15:20 -5.9 °C -9.7 °C 34198.6 hPa West 7.6 km/h 7.6 km/h 65 % 0 mm
15:25 -5.9 °C -9.7 °C 34198.6 hPa West 11.9 km/h 11.9 km/h 65 % 0 mm
15:30 -5.8 °C -9.6 °C 34198.6 hPa SW 5.1 km/h 12.9 km/h 65 % 0 mm
15:35 -5.8 °C -9.8 °C 34198.6 hPa SW 2.6 km/h 12.9 km/h 64 % 0 mm
15:40 -5.7 °C -9.7 °C 34198.6 hPa SW 2.6 km/h 7.7 km/h 64 % 0 mm
15:45 -5.7 °C -9.6 °C 34198.6 hPa South 6 km/h 6 km/h 64 % 0 mm
15:50 -5.7 °C -9.6 °C 34198.6 hPa SW 5.1 km/h 12.9 km/h 64 % 0 mm
15:55 -5.6 °C -9.5 °C 34198.6 hPa SW 7.7 km/h 12.9 km/h 64 % 0 mm
16:00 -5.7 °C -9.7 °C 34198.6 hPa SW 7.7 km/h 15.6 km/h 64 % 0 mm
16:10 -6.1 °C -10 °C 34198.6 hPa WSW 9 km/h 9 km/h 64 % 0 mm
16:15 -6.2 °C -9.9 °C 34198.6 hPa SW 15 km/h 15 km/h 65 % 0 mm
16:20 -6.3 °C -10.2 °C 34198.6 hPa WSW 15 km/h 15 km/h 64 % 0 mm
16:25 -6.3 °C -10.2 °C 34198.6 hPa SW 9 km/h 9 km/h 64 % 0 mm
16:30 -6.4 °C -10.4 °C 34198.6 hPa SW 9 km/h 9 km/h 64 % 0 mm
16:35 -6.5 °C -10.3 °C 34198.6 hPa West 6 km/h 6 km/h 65 % 0 mm
16:40 -6.6 °C -10.3 °C 34198.6 hPa SW 6 km/h 6 km/h 65 % 0 mm
16:45 -6.7 °C -10.3 °C 34198.6 hPa WNW 9 km/h 9 km/h 66 % 0 mm
16:50 -6.9 °C -10.4 °C 34198.6 hPa ENE 15 km/h 15 km/h 67 % 0 mm
16:55 -7.1 °C -10.6 °C 34198.6 hPa NNE 17.9 km/h 17.9 km/h 67 % 0 mm
17:00 -7.3 °C -10.6 °C 34198.6 hPa WNW 9 km/h 9 km/h 68 % 0 mm
17:05 -7.3 °C -10.6 °C 34198.6 hPa NNE 9 km/h 9 km/h 69 % 0 mm
17:10 -7.4 °C -10.6 °C 34198.6 hPa NNE 9 km/h 9 km/h 69 % 0 mm
17:15 -7.5 °C -10.7 °C 34198.6 hPa NW 6 km/h 6 km/h 69 % 0 mm
17:20 -7.6 °C -10.8 °C 34198.6 hPa NNE 6.8 km/h 6.8 km/h 69 % 0 mm
17:25 -7.7 °C -10.8 °C 34198.6 hPa NNW 9 km/h 9 km/h 70 % 0 mm
17:30 -7.7 °C -10.8 °C 34198.6 hPa NW 11.9 km/h 11.9 km/h 70 % 0 mm
17:35 -7.8 °C -10.9 °C 34198.6 hPa NNE 20.9 km/h 20.9 km/h 70 % 0 mm
17:40 -7.9 °C -10.9 °C 34198.6 hPa NNE 17.9 km/h 17.9 km/h 70 % 0 mm
17:45 -7.9 °C -11.2 °C 34198.6 hPa NNW 9.8 km/h 9.8 km/h 69 % 0 mm
17:50 -8 °C -11.2 °C 34198.6 hPa WSW 9 km/h 9 km/h 69 % 0 mm
17:55 -8 °C -11.2 °C 34198.6 hPa NNE 6 km/h 6 km/h 69 % 0 mm
18:00 -8.1 °C -11.4 °C 34198.6 hPa NNW 6 km/h 6 km/h 68 % 0 mm
18:05 -8.1 °C -11.3 °C 34198.6 hPa NW 7.6 km/h 7.6 km/h 69 % 0 mm
18:10 -8.2 °C -11.2 °C 34222.3 hPa WNW 11.9 km/h 11.9 km/h 70 % 0 mm
18:15 -8.4 °C -11.2 °C 34222.3 hPa West 9 km/h 9 km/h 72 % 0 mm
18:20 -8.8 °C -11.5 °C 34222.3 hPa WSW 9 km/h 9 km/h 73 % 0 mm
18:25 -9.2 °C -11.6 °C 34256.2 hPa West 9 km/h 9 km/h 75 % 109.22 mm
18:30 -9.4 °C -11.7 °C 34256.2 hPa WNW 11.9 km/h 11.9 km/h 76 % 213.36 mm
18:35 -9.5 °C -11.6 °C 34256.2 hPa SW 3.1 km/h 3.7 km/h 78 % 213.36 mm
18:40 -9.6 °C -11.6 °C 34256.2 hPa WSW 3.1 km/h 3.1 km/h 79 % 213.36 mm
18:45 -9.6 °C -11.5 °C 34256.2 hPa Calm     80 % 213.36 mm
18:50 -9.7 °C -11.6 °C 34256.2 hPa West 3.1 km/h   80 % 213.36 mm
18:55 -9.7 °C -11.4 °C 34256.2 hPa Calm     81 % 213.36 mm
19:00 -9.8 °C -11.4 °C 34256.2 hPa NE 6 km/h 6 km/h 82 % 213.36 mm
19:05 -9.8 °C -11.3 °C 34256.2 hPa NE 3.7 km/h 3.7 km/h 83 % 213.36 mm
19:10 -9.8 °C -11.4 °C 34256.2 hPa NE 11.9 km/h 11.9 km/h 83 % 213.36 mm
19:15 -9.9 °C -11.5 °C 34256.2 hPa NNE 6.3 km/h 6.3 km/h 83 % 213.36 mm
19:20 -10 °C -11.5 °C 34256.2 hPa ENE 9 km/h 9 km/h 84 % 373.38 mm
19:25 -10.1 °C -11.6 °C 34222.3 hPa NNE 9 km/h 9 km/h 84 % 264.16 mm
19:30 -10.1 °C -11.6 °C 34222.3 hPa Calm     84 % 160.02 mm
19:35 -10.2 °C -11.6 °C 34222.3 hPa Calm     84 % 160.02 mm
19:40 -10.2 °C -11.6 °C 34222.3 hPa WSW 6 km/h 6 km/h 84 % 160.02 mm
19:45 -10.1 °C -11.6 °C 34222.3 hPa Calm     84 % 160.02 mm
19:50 -10.1 °C -11.5 °C 34222.3 hPa SW 6 km/h 6 km/h 85 % 160.02 mm
19:55 -10.2 °C -11.6 °C 34198.6 hPa SW 3.1 km/h 3.1 km/h 85 % 160.02 mm
20:00 -10.2 °C -11.6 °C 34198.6 hPa SW 6 km/h 6 km/h 85 % 160.02 mm
20:05 -10.2 °C -11.6 °C 34198.6 hPa SW 6.8 km/h 6.8 km/h 85 % 160.02 mm
20:10 -10.2 °C -11.7 °C 34222.3 hPa WSW 11.9 km/h 11.9 km/h 84 % 160.02 mm
20:15 -10.2 °C -11.6 °C 34222.3 hPa West 6.8 km/h 6.8 km/h 85 % 160.02 mm
20:20 -10.2 °C -11.6 °C 34222.3 hPa WSW 9 km/h 9 km/h 85 % 0 mm
20:25 -10.2 °C -11.6 °C 34222.3 hPa WSW 11.9 km/h 11.9 km/h 85 % 0 mm
20:30 -10.2 °C -11.6 °C 34222.3 hPa West 6.8 km/h 6.8 km/h 85 % 25.4 mm
20:35 -10.2 °C -11.4 °C 34222.3 hPa SW 6 km/h   87 % 25.4 mm
20:41 -10.2 °C -11.3 °C 34222.3 hPa Calm     87 % 50.8 mm
20:46 -10.2 °C -11.3 °C 34222.3 hPa Calm     88 % 50.8 mm
20:51 -10.2 °C -11.3 °C 34222.3 hPa Calm     88 % 50.8 mm
20:56 -10.2 °C -11.2 °C 34198.6 hPa Calm     89 % 50.8 mm
21:01 -10.2 °C -11.2 °C 34198.6 hPa Calm     89 % 50.8 mm
21:06 -10.2 °C -11.2 °C 34198.6 hPa Calm     89 % 50.8 mm
21:11 -10.2 °C -11.2 °C 34198.6 hPa SSW 4.2 km/h 4.2 km/h 89 % 50.8 mm
21:16 -10.2 °C -11.2 °C 34198.6 hPa SW 3.7 km/h 3.7 km/h 89 % 50.8 mm
21:21 -10.2 °C -11.2 °C 34198.6 hPa SW 6 km/h 6 km/h 89 % 50.8 mm
21:26 -10.2 °C -11.2 °C 34222.3 hPa SW 5.6 km/h 5.6 km/h 89 % 50.8 mm
21:31 -10.2 °C -11.2 °C 34222.3 hPa SW 6 km/h 6 km/h 89 % 50.8 mm
21:36 -10.3 °C -11.3 °C 34222.3 hPa Calm     89 % 25.4 mm
21:41 -10.3 °C -11.3 °C 34222.3 hPa WSW 6 km/h 6 km/h 89 % 25.4 mm
21:46 -10.2 °C -11.2 °C 34222.3 hPa Calm     89 % 0 mm
21:51 -10.2 °C -11.1 °C 34222.3 hPa Calm     90 % 0 mm
21:56 -10.2 °C -11.1 °C 34222.3 hPa SW 3.1 km/h   90 % 0 mm
22:01 -10.3 °C -11.2 °C 34222.3 hPa SW 4.2 km/h   90 % 0 mm
22:06 -10.3 °C -11.3 °C 34256.2 hPa WSW 6 km/h 6 km/h 89 % 0 mm
22:11 -10.3 °C -11.3 °C 34256.2 hPa WSW 6 km/h 6 km/h 89 % 0 mm
22:16 -10.3 °C -11.2 °C 34256.2 hPa WSW 3.1 km/h   90 % 0 mm
22:21 -10.3 °C -11.2 °C 34256.2 hPa SW 3.1 km/h   90 % 0 mm
22:26 -10.3 °C -11.2 °C 34256.2 hPa ESE 3.1 km/h 3.1 km/h 90 % 0 mm
22:27 -10.3 °C -11.2 °C 34256.2 hPa ESE 3.1 km/h   90 % 0 mm
22:32 -10.3 °C -11.2 °C 34256.2 hPa Calm     91 % 0 mm
22:33 -10.3 °C -11.2 °C 34256.2 hPa Calm     91 % 0 mm
22:38 -10.3 °C -11.1 °C 34222.3 hPa Calm     91 % 0 mm
22:43 -10.3 °C -11.2 °C 34222.3 hPa Calm     91 % 0 mm
22:48 -10.3 °C -11.2 °C 34222.3 hPa Calm     91 % 0 mm
22:53 -10.3 °C -11.1 °C 34222.3 hPa Calm     91 % 0 mm
22:55 -10.3 °C -11.1 °C 34222.3 hPa SW 6.3 km/h   91 % 0 mm
23:00 -10.3 °C -11.1 °C 34222.3 hPa SW 2.3 km/h   91 % 0 mm
23:05 -10.3 °C -11.1 °C 34222.3 hPa SW 5.1 km/h   91 % 0 mm
23:10 -10.3 °C -11.2 °C 34222.3 hPa SW 6.3 km/h 6.3 km/h 91 % 0 mm
23:15 -10.3 °C -11.1 °C 34222.3 hPa SW 6 km/h 6 km/h 91 % 0 mm
23:20 -10.3 °C -11.1 °C 34222.3 hPa WSW 6.3 km/h 6.3 km/h 91 % 0 mm
23:25 -10.3 °C -11.2 °C 34222.3 hPa WSW 6 km/h 6 km/h 90 % 0 mm
23:30 -10.3 °C -11.1 °C 34222.3 hPa Calm     91 % 0 mm
23:35 -10.3 °C -11.1 °C 34222.3 hPa Calm     91 % 0 mm
23:40 -10.3 °C -11.2 °C 34222.3 hPa WSW 6 km/h   91 % 0 mm
23:45 -10.3 °C -11.2 °C 34222.3 hPa SW 6 km/h   91 % 0 mm
23:50 -10.4 °C -11.2 °C 34222.3 hPa Calm     91 % 0 mm
23:55 -10.4 °C -11.2 °C 34198.6 hPa SW 6 km/h 6 km/h 91 % 0 mm
Meteo Sesrovires
Elogis d' Weather Underground - 2 mb

Guio original per  Jim McMurry - jmcmurry@mwt.net Adaptat per a la plantilla per  Wim van der Kuil - Leuven-Template.eu

Trobareu la nostra informacio del temps tambe a:

Weather Underground

AWEKAS